sensor_id;sensor_type;location;lat;lon;timestamp;P1;durP1;ratioP1;P2;durP2;ratioP2
4921;SDS011;16625;53.624;10.106;2023-11-21T00:01:31;28.10;;;13.90;;
4921;SDS011;16625;53.624;10.106;2023-11-21T00:03:59;31.23;;;14.10;;
4921;SDS011;16625;53.624;10.106;2023-11-21T00:06:26;21.30;;;11.43;;
4921;SDS011;16625;53.624;10.106;2023-11-21T00:08:55;27.63;;;14.43;;
4921;SDS011;16625;53.624;10.106;2023-11-21T00:11:21;24.47;;;12.07;;
4921;SDS011;16625;53.624;10.106;2023-11-21T00:13:50;28.17;;;14.60;;
4921;SDS011;16625;53.624;10.106;2023-11-21T00:16:18;17.10;;;10.37;;
4921;SDS011;16625;53.624;10.106;2023-11-21T00:18:45;18.20;;;11.40;;
4921;SDS011;16625;53.624;10.106;2023-11-21T00:21:12;22.27;;;11.40;;
4921;SDS011;16625;53.624;10.106;2023-11-21T00:23:39;16.23;;;10.33;;
4921;SDS011;16625;53.624;10.106;2023-11-21T00:26:06;20.10;;;11.33;;
4921;SDS011;16625;53.624;10.106;2023-11-21T00:28:33;18.33;;;11.20;;
4921;SDS011;16625;53.624;10.106;2023-11-21T00:31:00;21.47;;;10.50;;
4921;SDS011;16625;53.624;10.106;2023-11-21T00:33:28;18.17;;;10.10;;
4921;SDS011;16625;53.624;10.106;2023-11-21T00:35:55;23.50;;;10.40;;
4921;SDS011;16625;53.624;10.106;2023-11-21T00:38:22;24.23;;;12.30;;
4921;SDS011;16625;53.624;10.106;2023-11-21T00:40:49;26.53;;;12.50;;
4921;SDS011;16625;53.624;10.106;2023-11-21T00:43:16;32.70;;;14.63;;
4921;SDS011;16625;53.624;10.106;2023-11-21T00:45:43;23.33;;;12.10;;
4921;SDS011;16625;53.624;10.106;2023-11-21T00:48:10;25.50;;;12.90;;
4921;SDS011;16625;53.624;10.106;2023-11-21T00:50:40;25.70;;;13.37;;
4921;SDS011;16625;53.624;10.106;2023-11-21T00:53:07;26.83;;;13.40;;
4921;SDS011;16625;53.624;10.106;2023-11-21T00:55:34;23.60;;;11.07;;
4921;SDS011;16625;53.624;10.106;2023-11-21T00:58:00;29.37;;;13.90;;
4921;SDS011;16625;53.624;10.106;2023-11-21T01:00:29;24.70;;;13.37;;
4921;SDS011;16625;53.624;10.106;2023-11-21T01:02:56;22.93;;;12.10;;
4921;SDS011;16625;53.624;10.106;2023-11-21T01:05:23;24.33;;;13.70;;
4921;SDS011;16625;53.624;10.106;2023-11-21T01:07:51;23.00;;;12.33;;
4921;SDS011;16625;53.624;10.106;2023-11-21T01:10:18;16.80;;;11.33;;
4921;SDS011;16625;53.624;10.106;2023-11-21T01:12:45;24.73;;;12.00;;
4921;SDS011;16625;53.624;10.106;2023-11-21T01:15:14;25.17;;;13.30;;
4921;SDS011;16625;53.624;10.106;2023-11-21T01:17:41;26.90;;;13.43;;
4921;SDS011;16625;53.624;10.106;2023-11-21T01:20:08;19.67;;;12.50;;
4921;SDS011;16625;53.624;10.106;2023-11-21T01:22:36;23.30;;;13.40;;
4921;SDS011;16625;53.624;10.106;2023-11-21T01:25:05;24.60;;;14.00;;
4921;SDS011;16625;53.624;10.106;2023-11-21T01:27:33;22.83;;;13.33;;
4921;SDS011;16625;53.624;10.106;2023-11-21T01:30:00;22.30;;;13.13;;
4921;SDS011;16625;53.624;10.106;2023-11-21T01:32:27;19.47;;;10.50;;
4921;SDS011;16625;53.624;10.106;2023-11-21T01:34:54;21.70;;;11.70;;
4921;SDS011;16625;53.624;10.106;2023-11-21T01:37:21;22.10;;;12.30;;
4921;SDS011;16625;53.624;10.106;2023-11-21T01:39:48;17.73;;;10.50;;
4921;SDS011;16625;53.624;10.106;2023-11-21T01:42:16;14.10;;;9.77;;
4921;SDS011;16625;53.624;10.106;2023-11-21T01:44:43;13.90;;;8.70;;
4921;SDS011;16625;53.624;10.106;2023-11-21T01:47:11;15.30;;;7.93;;
4921;SDS011;16625;53.624;10.106;2023-11-21T01:49:39;13.17;;;9.03;;
4921;SDS011;16625;53.624;10.106;2023-11-21T01:52:07;11.37;;;8.50;;
4921;SDS011;16625;53.624;10.106;2023-11-21T01:54:36;15.90;;;9.80;;
4921;SDS011;16625;53.624;10.106;2023-11-21T01:57:04;14.70;;;8.40;;
4921;SDS011;16625;53.624;10.106;2023-11-21T01:59:33;12.60;;;7.73;;
4921;SDS011;16625;53.624;10.106;2023-11-21T02:02:01;15.10;;;8.50;;
4921;SDS011;16625;53.624;10.106;2023-11-21T02:04:30;13.70;;;8.20;;
4921;SDS011;16625;53.624;10.106;2023-11-21T02:06:57;16.60;;;8.13;;
4921;SDS011;16625;53.624;10.106;2023-11-21T02:09:24;14.07;;;7.80;;
4921;SDS011;16625;53.624;10.106;2023-11-21T02:11:52;11.10;;;7.97;;
4921;SDS011;16625;53.624;10.106;2023-11-21T02:14:19;15.23;;;9.00;;
4921;SDS011;16625;53.624;10.106;2023-11-21T02:16:48;14.13;;;8.10;;
4921;SDS011;16625;53.624;10.106;2023-11-21T02:19:17;12.00;;;8.37;;
4921;SDS011;16625;53.624;10.106;2023-11-21T02:21:47;13.40;;;8.40;;
4921;SDS011;16625;53.624;10.106;2023-11-21T02:24:17;12.00;;;7.90;;
4921;SDS011;16625;53.624;10.106;2023-11-21T02:26:45;12.90;;;7.73;;
4921;SDS011;16625;53.624;10.106;2023-11-21T02:29:12;9.87;;;7.50;;
4921;SDS011;16625;53.624;10.106;2023-11-21T02:31:41;12.97;;;7.20;;
4921;SDS011;16625;53.624;10.106;2023-11-21T02:34:13;13.10;;;7.20;;
4921;SDS011;16625;53.624;10.106;2023-11-21T02:36:40;15.43;;;6.87;;
4921;SDS011;16625;53.624;10.106;2023-11-21T02:39:07;12.40;;;7.27;;
4921;SDS011;16625;53.624;10.106;2023-11-21T02:41:36;14.40;;;7.43;;
4921;SDS011;16625;53.624;10.106;2023-11-21T02:44:04;13.30;;;6.90;;
4921;SDS011;16625;53.624;10.106;2023-11-21T02:46:32;11.83;;;7.33;;
4921;SDS011;16625;53.624;10.106;2023-11-21T02:49:00;17.10;;;7.57;;
4921;SDS011;16625;53.624;10.106;2023-11-21T02:51:26;12.40;;;6.50;;
4921;SDS011;16625;53.624;10.106;2023-11-21T02:53:53;16.93;;;7.40;;
4921;SDS011;16625;53.624;10.106;2023-11-21T02:56:23;12.93;;;7.73;;
4921;SDS011;16625;53.624;10.106;2023-11-21T02:58:52;12.67;;;8.03;;
4921;SDS011;16625;53.624;10.106;2023-11-21T03:01:19;24.90;;;6.80;;
4921;SDS011;16625;53.624;10.106;2023-11-21T03:03:45;13.53;;;7.83;;
4921;SDS011;16625;53.624;10.106;2023-11-21T03:06:16;13.30;;;7.87;;
4921;SDS011;16625;53.624;10.106;2023-11-21T03:08:42;14.00;;;8.30;;
4921;SDS011;16625;53.624;10.106;2023-11-21T03:11:09;15.03;;;8.87;;
4921;SDS011;16625;53.624;10.106;2023-11-21T03:13:37;9.83;;;6.67;;
4921;SDS011;16625;53.624;10.106;2023-11-21T03:16:06;15.30;;;8.50;;
4921;SDS011;16625;53.624;10.106;2023-11-21T03:18:34;16.80;;;9.33;;
4921;SDS011;16625;53.624;10.106;2023-11-21T03:21:01;12.87;;;7.53;;
4921;SDS011;16625;53.624;10.106;2023-11-21T03:23:28;14.60;;;8.97;;
4921;SDS011;16625;53.624;10.106;2023-11-21T03:25:55;14.20;;;8.50;;
4921;SDS011;16625;53.624;10.106;2023-11-21T03:28:22;16.97;;;10.17;;
4921;SDS011;16625;53.624;10.106;2023-11-21T03:30:49;25.10;;;8.90;;
4921;SDS011;16625;53.624;10.106;2023-11-21T03:33:17;11.53;;;7.10;;
4921;SDS011;16625;53.624;10.106;2023-11-21T03:35:44;15.37;;;8.60;;
4921;SDS011;16625;53.624;10.106;2023-11-21T03:38:11;19.20;;;9.40;;
4921;SDS011;16625;53.624;10.106;2023-11-21T03:40:38;13.77;;;8.63;;
4921;SDS011;16625;53.624;10.106;2023-11-21T03:43:05;12.10;;;8.07;;
4921;SDS011;16625;53.624;10.106;2023-11-21T03:45:32;15.23;;;8.60;;
4921;SDS011;16625;53.624;10.106;2023-11-21T03:47:59;14.93;;;7.63;;
4921;SDS011;16625;53.624;10.106;2023-11-21T03:50:28;13.73;;;8.60;;
4921;SDS011;16625;53.624;10.106;2023-11-21T03:52:55;15.23;;;9.90;;
4921;SDS011;16625;53.624;10.106;2023-11-21T03:55:22;15.73;;;8.40;;
4921;SDS011;16625;53.624;10.106;2023-11-21T03:57:50;15.23;;;9.17;;
4921;SDS011;16625;53.624;10.106;2023-11-21T04:00:17;14.37;;;8.67;;
4921;SDS011;16625;53.624;10.106;2023-11-21T04:02:46;18.83;;;8.73;;
4921;SDS011;16625;53.624;10.106;2023-11-21T04:05:13;12.50;;;8.73;;
4921;SDS011;16625;53.624;10.106;2023-11-21T04:07:41;16.40;;;8.83;;
4921;SDS011;16625;53.624;10.106;2023-11-21T04:10:08;14.63;;;8.90;;
4921;SDS011;16625;53.624;10.106;2023-11-21T04:12:37;18.30;;;8.80;;
4921;SDS011;16625;53.624;10.106;2023-11-21T04:15:05;13.97;;;8.90;;
4921;SDS011;16625;53.624;10.106;2023-11-21T04:17:34;13.77;;;9.23;;
4921;SDS011;16625;53.624;10.106;2023-11-21T04:20:01;14.30;;;8.13;;
4921;SDS011;16625;53.624;10.106;2023-11-21T04:22:28;16.37;;;7.87;;
4921;SDS011;16625;53.624;10.106;2023-11-21T04:24:57;13.70;;;8.63;;
4921;SDS011;16625;53.624;10.106;2023-11-21T04:27:24;13.80;;;9.63;;
4921;SDS011;16625;53.624;10.106;2023-11-21T04:29:50;12.87;;;8.40;;
4921;SDS011;16625;53.624;10.106;2023-11-21T04:32:17;14.73;;;8.50;;
4921;SDS011;16625;53.624;10.106;2023-11-21T04:34:44;14.47;;;8.53;;
4921;SDS011;16625;53.624;10.106;2023-11-21T04:37:11;17.37;;;9.70;;
4921;SDS011;16625;53.624;10.106;2023-11-21T04:39:38;12.43;;;8.83;;
4921;SDS011;16625;53.624;10.106;2023-11-21T04:42:06;11.73;;;8.60;;
4921;SDS011;16625;53.624;10.106;2023-11-21T04:44:33;14.20;;;8.07;;
4921;SDS011;16625;53.624;10.106;2023-11-21T04:47:00;11.23;;;7.87;;
4921;SDS011;16625;53.624;10.106;2023-11-21T04:49:29;14.57;;;8.60;;
4921;SDS011;16625;53.624;10.106;2023-11-21T04:51:56;13.80;;;8.00;;
4921;SDS011;16625;53.624;10.106;2023-11-21T04:54:23;12.70;;;8.77;;
4921;SDS011;16625;53.624;10.106;2023-11-21T04:56:50;15.17;;;9.50;;
4921;SDS011;16625;53.624;10.106;2023-11-21T04:59:18;14.33;;;8.43;;
4921;SDS011;16625;53.624;10.106;2023-11-21T05:01:45;16.10;;;9.43;;
4921;SDS011;16625;53.624;10.106;2023-11-21T05:04:12;12.67;;;7.80;;
4921;SDS011;16625;53.624;10.106;2023-11-21T05:06:39;13.37;;;9.67;;
4921;SDS011;16625;53.624;10.106;2023-11-21T05:09:06;15.03;;;9.50;;
4921;SDS011;16625;53.624;10.106;2023-11-21T05:11:36;12.50;;;8.27;;
4921;SDS011;16625;53.624;10.106;2023-11-21T05:14:04;14.83;;;9.20;;
4921;SDS011;16625;53.624;10.106;2023-11-21T05:16:33;17.03;;;8.37;;
4921;SDS011;16625;53.624;10.106;2023-11-21T05:19:00;17.80;;;8.30;;
4921;SDS011;16625;53.624;10.106;2023-11-21T05:21:29;10.27;;;7.63;;
4921;SDS011;16625;53.624;10.106;2023-11-21T05:23:56;14.90;;;8.40;;
4921;SDS011;16625;53.624;10.106;2023-11-21T05:26:23;14.20;;;9.63;;
4921;SDS011;16625;53.624;10.106;2023-11-21T05:28:50;13.20;;;8.13;;
4921;SDS011;16625;53.624;10.106;2023-11-21T05:31:17;15.60;;;8.27;;
4921;SDS011;16625;53.624;10.106;2023-11-21T05:33:45;12.33;;;8.00;;
4921;SDS011;16625;53.624;10.106;2023-11-21T05:36:13;11.57;;;8.47;;
4921;SDS011;16625;53.624;10.106;2023-11-21T05:38:40;14.30;;;8.20;;
4921;SDS011;16625;53.624;10.106;2023-11-21T05:41:07;12.17;;;8.60;;
4921;SDS011;16625;53.624;10.106;2023-11-21T05:43:36;14.83;;;8.47;;
4921;SDS011;16625;53.624;10.106;2023-11-21T05:46:03;11.53;;;8.23;;
4921;SDS011;16625;53.624;10.106;2023-11-21T05:48:30;14.00;;;7.80;;
4921;SDS011;16625;53.624;10.106;2023-11-21T05:50:58;11.47;;;7.00;;
4921;SDS011;16625;53.624;10.106;2023-11-21T05:53:27;15.23;;;8.20;;
4921;SDS011;16625;53.624;10.106;2023-11-21T05:55:54;14.43;;;7.67;;
4921;SDS011;16625;53.624;10.106;2023-11-21T05:58:21;15.20;;;8.97;;
4921;SDS011;16625;53.624;10.106;2023-11-21T06:00:48;12.23;;;8.97;;
4921;SDS011;16625;53.624;10.106;2023-11-21T06:03:14;15.40;;;9.87;;
4921;SDS011;16625;53.624;10.106;2023-11-21T06:05:42;11.57;;;8.30;;
4921;SDS011;16625;53.624;10.106;2023-11-21T06:08:11;12.20;;;8.20;;
4921;SDS011;16625;53.624;10.106;2023-11-21T06:10:37;12.77;;;7.83;;
4921;SDS011;16625;53.624;10.106;2023-11-21T06:13:04;13.30;;;8.70;;
4921;SDS011;16625;53.624;10.106;2023-11-21T06:15:33;14.30;;;8.80;;
4921;SDS011;16625;53.624;10.106;2023-11-21T06:18:00;11.20;;;8.00;;
4921;SDS011;16625;53.624;10.106;2023-11-21T06:20:27;14.77;;;8.47;;
4921;SDS011;16625;53.624;10.106;2023-11-21T06:22:53;13.80;;;9.20;;
4921;SDS011;16625;53.624;10.106;2023-11-21T06:25:22;16.60;;;9.00;;
4921;SDS011;16625;53.624;10.106;2023-11-21T06:27:49;11.10;;;7.77;;
4921;SDS011;16625;53.624;10.106;2023-11-21T06:30:18;11.90;;;7.93;;
4921;SDS011;16625;53.624;10.106;2023-11-21T06:32:46;11.60;;;8.07;;
4921;SDS011;16625;53.624;10.106;2023-11-21T06:35:15;15.13;;;8.97;;
4921;SDS011;16625;53.624;10.106;2023-11-21T06:37:42;12.80;;;7.80;;
4921;SDS011;16625;53.624;10.106;2023-11-21T06:40:12;11.27;;;7.37;;
4921;SDS011;16625;53.624;10.106;2023-11-21T06:42:41;14.50;;;8.57;;
4921;SDS011;16625;53.624;10.106;2023-11-21T06:45:09;11.00;;;7.70;;
4921;SDS011;16625;53.624;10.106;2023-11-21T06:47:36;11.80;;;8.37;;
4921;SDS011;16625;53.624;10.106;2023-11-21T06:50:05;13.50;;;8.97;;
4921;SDS011;16625;53.624;10.106;2023-11-21T06:52:32;17.73;;;7.90;;
4921;SDS011;16625;53.624;10.106;2023-11-21T06:54:59;13.70;;;7.90;;
4921;SDS011;16625;53.624;10.106;2023-11-21T06:57:26;10.43;;;7.60;;
4921;SDS011;16625;53.624;10.106;2023-11-21T06:59:54;14.10;;;8.70;;
4921;SDS011;16625;53.624;10.106;2023-11-21T07:02:22;15.43;;;8.90;;
4921;SDS011;16625;53.624;10.106;2023-11-21T07:04:49;17.30;;;8.10;;
4921;SDS011;16625;53.624;10.106;2023-11-21T07:07:16;15.00;;;8.40;;
4921;SDS011;16625;53.624;10.106;2023-11-21T07:09:44;15.53;;;8.33;;
4921;SDS011;16625;53.624;10.106;2023-11-21T07:12:11;11.33;;;7.40;;
4921;SDS011;16625;53.624;10.106;2023-11-21T07:14:39;12.53;;;8.23;;
4921;SDS011;16625;53.624;10.106;2023-11-21T07:17:09;14.33;;;8.20;;
4921;SDS011;16625;53.624;10.106;2023-11-21T07:19:37;11.67;;;7.67;;
4921;SDS011;16625;53.624;10.106;2023-11-21T07:22:04;11.27;;;7.50;;
4921;SDS011;16625;53.624;10.106;2023-11-21T07:24:31;13.07;;;8.10;;
4921;SDS011;16625;53.624;10.106;2023-11-21T07:26:58;11.30;;;7.93;;
4921;SDS011;16625;53.624;10.106;2023-11-21T07:29:26;11.50;;;7.60;;
4921;SDS011;16625;53.624;10.106;2023-11-21T07:31:54;12.50;;;9.00;;
4921;SDS011;16625;53.624;10.106;2023-11-21T07:34:23;14.77;;;7.67;;
4921;SDS011;16625;53.624;10.106;2023-11-21T07:36:50;10.47;;;6.30;;
4921;SDS011;16625;53.624;10.106;2023-11-21T07:39:17;12.10;;;6.97;;
4921;SDS011;16625;53.624;10.106;2023-11-21T07:41:44;11.13;;;8.20;;
4921;SDS011;16625;53.624;10.106;2023-11-21T07:44:13;13.80;;;7.90;;
4921;SDS011;16625;53.624;10.106;2023-11-21T07:46:40;14.47;;;7.57;;
4921;SDS011;16625;53.624;10.106;2023-11-21T07:49:07;16.50;;;8.07;;
4921;SDS011;16625;53.624;10.106;2023-11-21T07:51:36;13.40;;;7.80;;
4921;SDS011;16625;53.624;10.106;2023-11-21T07:54:03;11.70;;;7.37;;
4921;SDS011;16625;53.624;10.106;2023-11-21T07:56:31;11.63;;;7.60;;
4921;SDS011;16625;53.624;10.106;2023-11-21T07:58:58;8.20;;;5.97;;
4921;SDS011;16625;53.624;10.106;2023-11-21T08:01:25;10.60;;;6.30;;
4921;SDS011;16625;53.624;10.106;2023-11-21T08:03:53;10.50;;;7.67;;
4921;SDS011;16625;53.624;10.106;2023-11-21T08:06:22;9.60;;;5.70;;
4921;SDS011;16625;53.624;10.106;2023-11-21T08:08:50;9.07;;;6.00;;
4921;SDS011;16625;53.624;10.106;2023-11-21T08:11:17;18.80;;;5.90;;
4921;SDS011;16625;53.624;10.106;2023-11-21T08:13:44;8.30;;;5.97;;
4921;SDS011;16625;53.624;10.106;2023-11-21T08:16:12;9.40;;;5.60;;
4921;SDS011;16625;53.624;10.106;2023-11-21T08:18:39;6.90;;;5.83;;
4921;SDS011;16625;53.624;10.106;2023-11-21T08:21:06;12.30;;;6.90;;
4921;SDS011;16625;53.624;10.106;2023-11-21T08:23:34;11.13;;;6.20;;
4921;SDS011;16625;53.624;10.106;2023-11-21T08:26:02;8.57;;;6.00;;
4921;SDS011;16625;53.624;10.106;2023-11-21T08:28:30;7.70;;;5.97;;
4921;SDS011;16625;53.624;10.106;2023-11-21T08:30:57;7.90;;;6.40;;
4921;SDS011;16625;53.624;10.106;2023-11-21T08:33:24;8.90;;;5.40;;
4921;SDS011;16625;53.624;10.106;2023-11-21T08:35:51;10.50;;;5.40;;
4921;SDS011;16625;53.624;10.106;2023-11-21T08:38:18;7.90;;;5.37;;
4921;SDS011;16625;53.624;10.106;2023-11-21T08:40:45;8.57;;;5.33;;
4921;SDS011;16625;53.624;10.106;2023-11-21T08:43:13;6.93;;;4.90;;
4921;SDS011;16625;53.624;10.106;2023-11-21T08:45:41;6.10;;;4.27;;
4921;SDS011;16625;53.624;10.106;2023-11-21T08:48:08;7.37;;;4.90;;
4921;SDS011;16625;53.624;10.106;2023-11-21T08:50:36;6.53;;;5.10;;
4921;SDS011;16625;53.624;10.106;2023-11-21T08:53:03;7.10;;;4.73;;
4921;SDS011;16625;53.624;10.106;2023-11-21T08:55:30;7.30;;;4.67;;
4921;SDS011;16625;53.624;10.106;2023-11-21T08:58:02;6.90;;;5.00;;
4921;SDS011;16625;53.624;10.106;2023-11-21T09:00:32;7.50;;;5.13;;
4921;SDS011;16625;53.624;10.106;2023-11-21T09:03:00;9.27;;;5.27;;
4921;SDS011;16625;53.624;10.106;2023-11-21T09:05:28;5.70;;;4.40;;
4921;SDS011;16625;53.624;10.106;2023-11-21T09:07:55;11.27;;;5.37;;
4921;SDS011;16625;53.624;10.106;2023-11-21T09:10:22;6.60;;;4.83;;
4921;SDS011;16625;53.624;10.106;2023-11-21T09:12:50;7.27;;;5.13;;
4921;SDS011;16625;53.624;10.106;2023-11-21T09:15:17;5.73;;;5.10;;
4921;SDS011;16625;53.624;10.106;2023-11-21T09:17:47;11.77;;;4.90;;
4921;SDS011;16625;53.624;10.106;2023-11-21T09:20:13;7.87;;;5.93;;
4921;SDS011;16625;53.624;10.106;2023-11-21T09:22:41;16.00;;;5.20;;
4921;SDS011;16625;53.624;10.106;2023-11-21T09:25:09;10.30;;;5.13;;
4921;SDS011;16625;53.624;10.106;2023-11-21T09:27:37;7.53;;;5.00;;
4921;SDS011;16625;53.624;10.106;2023-11-21T09:30:05;8.80;;;4.80;;
4921;SDS011;16625;53.624;10.106;2023-11-21T09:32:34;9.47;;;5.37;;
4921;SDS011;16625;53.624;10.106;2023-11-21T09:35:05;7.00;;;4.60;;
4921;SDS011;16625;53.624;10.106;2023-11-21T09:37:33;7.90;;;5.00;;
4921;SDS011;16625;53.624;10.106;2023-11-21T09:40:01;6.50;;;4.50;;
4921;SDS011;16625;53.624;10.106;2023-11-21T09:42:36;5.70;;;4.23;;
4921;SDS011;16625;53.624;10.106;2023-11-21T09:45:08;5.43;;;3.43;;
4921;SDS011;16625;53.624;10.106;2023-11-21T09:47:43;5.03;;;3.77;;
4921;SDS011;16625;53.624;10.106;2023-11-21T09:50:11;5.67;;;4.40;;
4921;SDS011;16625;53.624;10.106;2023-11-21T09:52:44;7.63;;;4.83;;
4921;SDS011;16625;53.624;10.106;2023-11-21T09:55:22;13.63;;;3.90;;
4921;SDS011;16625;53.624;10.106;2023-11-21T09:57:53;6.40;;;4.17;;
4921;SDS011;16625;53.624;10.106;2023-11-21T10:00:22;5.17;;;3.67;;
4921;SDS011;16625;53.624;10.106;2023-11-21T10:02:50;5.77;;;3.90;;
4921;SDS011;16625;53.624;10.106;2023-11-21T10:05:19;5.77;;;3.50;;
4921;SDS011;16625;53.624;10.106;2023-11-21T10:07:47;4.60;;;3.73;;
4921;SDS011;16625;53.624;10.106;2023-11-21T10:10:17;6.37;;;3.97;;
4921;SDS011;16625;53.624;10.106;2023-11-21T10:12:49;5.53;;;3.37;;
4921;SDS011;16625;53.624;10.106;2023-11-21T10:15:20;8.40;;;3.50;;
4921;SDS011;16625;53.624;10.106;2023-11-21T10:17:48;5.50;;;3.70;;
4921;SDS011;16625;53.624;10.106;2023-11-21T10:20:19;5.23;;;3.30;;
4921;SDS011;16625;53.624;10.106;2023-11-21T10:22:46;6.10;;;3.83;;
4921;SDS011;16625;53.624;10.106;2023-11-21T10:25:13;4.20;;;3.73;;
4921;SDS011;16625;53.624;10.106;2023-11-21T10:27:41;5.30;;;3.50;;
4921;SDS011;16625;53.624;10.106;2023-11-21T10:30:08;5.57;;;3.80;;
4921;SDS011;16625;53.624;10.106;2023-11-21T10:32:37;6.30;;;3.30;;
4921;SDS011;16625;53.624;10.106;2023-11-21T10:35:05;4.50;;;3.00;;
4921;SDS011;16625;53.624;10.106;2023-11-21T10:37:36;5.87;;;3.50;;
4921;SDS011;16625;53.624;10.106;2023-11-21T10:40:05;6.50;;;3.80;;
4921;SDS011;16625;53.624;10.106;2023-11-21T10:42:34;6.63;;;3.70;;
4921;SDS011;16625;53.624;10.106;2023-11-21T10:45:01;7.80;;;4.00;;
4921;SDS011;16625;53.624;10.106;2023-11-21T10:47:36;4.53;;;3.67;;
4921;SDS011;16625;53.624;10.106;2023-11-21T10:50:05;7.40;;;3.93;;
4921;SDS011;16625;53.624;10.106;2023-11-21T10:52:37;5.07;;;4.17;;
4921;SDS011;16625;53.624;10.106;2023-11-21T10:55:15;8.00;;;3.30;;
4921;SDS011;16625;53.624;10.106;2023-11-21T10:57:44;5.47;;;3.70;;
4921;SDS011;16625;53.624;10.106;2023-11-21T11:00:15;5.10;;;3.33;;
4921;SDS011;16625;53.624;10.106;2023-11-21T11:02:45;7.07;;;3.07;;
4921;SDS011;16625;53.624;10.106;2023-11-21T11:05:14;6.30;;;3.60;;
4921;SDS011;16625;53.624;10.106;2023-11-21T11:07:45;3.80;;;3.03;;
4921;SDS011;16625;53.624;10.106;2023-11-21T11:10:19;5.20;;;3.57;;
4921;SDS011;16625;53.624;10.106;2023-11-21T11:12:48;13.37;;;3.83;;
4921;SDS011;16625;53.624;10.106;2023-11-21T11:15:17;5.10;;;3.50;;
4921;SDS011;16625;53.624;10.106;2023-11-21T11:17:45;5.27;;;3.63;;
4921;SDS011;16625;53.624;10.106;2023-11-21T11:20:13;5.67;;;3.73;;
4921;SDS011;16625;53.624;10.106;2023-11-21T11:22:46;5.40;;;4.00;;
4921;SDS011;16625;53.624;10.106;2023-11-21T11:28:19;9.00;;;3.37;;
4921;SDS011;16625;53.624;10.106;2023-11-21T11:30:52;3.93;;;3.13;;
4921;SDS011;16625;53.624;10.106;2023-11-21T11:33:31;7.80;;;3.43;;
4921;SDS011;16625;53.624;10.106;2023-11-21T11:36:05;5.07;;;3.40;;
4921;SDS011;16625;53.624;10.106;2023-11-21T11:38:37;8.10;;;3.13;;
4921;SDS011;16625;53.624;10.106;2023-11-21T11:41:05;7.00;;;3.77;;
4921;SDS011;16625;53.624;10.106;2023-11-21T11:43:34;6.60;;;3.30;;
4921;SDS011;16625;53.624;10.106;2023-11-21T11:46:09;4.33;;;3.50;;
4921;SDS011;16625;53.624;10.106;2023-11-21T11:48:38;4.60;;;3.40;;
4921;SDS011;16625;53.624;10.106;2023-11-21T11:51:06;8.73;;;3.80;;
4921;SDS011;16625;53.624;10.106;2023-11-21T11:53:40;7.80;;;3.60;;
4921;SDS011;16625;53.624;10.106;2023-11-21T11:56:24;6.00;;;3.47;;
4921;SDS011;16625;53.624;10.106;2023-11-21T11:58:53;3.40;;;3.00;;
4921;SDS011;16625;53.624;10.106;2023-11-21T12:01:23;5.63;;;3.33;;
4921;SDS011;16625;53.624;10.106;2023-11-21T12:06:55;5.73;;;3.73;;
4921;SDS011;16625;53.624;10.106;2023-11-21T12:09:26;3.17;;;2.80;;
4921;SDS011;16625;53.624;10.106;2023-11-21T12:11:54;6.67;;;4.00;;
4921;SDS011;16625;53.624;10.106;2023-11-21T12:14:22;6.57;;;3.67;;
4921;SDS011;16625;53.624;10.106;2023-11-21T12:16:49;3.90;;;3.33;;
4921;SDS011;16625;53.624;10.106;2023-11-21T12:19:18;4.13;;;3.17;;
4921;SDS011;16625;53.624;10.106;2023-11-21T12:21:46;4.07;;;2.67;;
4921;SDS011;16625;53.624;10.106;2023-11-21T12:24:13;3.80;;;2.80;;
4921;SDS011;16625;53.624;10.106;2023-11-21T12:26:42;10.33;;;3.70;;
4921;SDS011;16625;53.624;10.106;2023-11-21T12:29:10;3.83;;;3.20;;
4921;SDS011;16625;53.624;10.106;2023-11-21T12:31:37;7.60;;;3.70;;
4921;SDS011;16625;53.624;10.106;2023-11-21T12:34:05;3.90;;;2.90;;
4921;SDS011;16625;53.624;10.106;2023-11-21T12:36:32;4.20;;;3.00;;
4921;SDS011;16625;53.624;10.106;2023-11-21T12:38:59;3.83;;;3.10;;
4921;SDS011;16625;53.624;10.106;2023-11-21T12:41:27;15.60;;;4.13;;
4921;SDS011;16625;53.624;10.106;2023-11-21T12:43:57;7.00;;;3.40;;
4921;SDS011;16625;53.624;10.106;2023-11-21T12:46:24;4.07;;;2.90;;
4921;SDS011;16625;53.624;10.106;2023-11-21T12:48:54;9.13;;;3.73;;
4921;SDS011;16625;53.624;10.106;2023-11-21T12:51:21;7.30;;;3.43;;
4921;SDS011;16625;53.624;10.106;2023-11-21T12:53:50;4.70;;;3.47;;
4921;SDS011;16625;53.624;10.106;2023-11-21T12:56:17;9.97;;;3.80;;
4921;SDS011;16625;53.624;10.106;2023-11-21T12:58:48;6.83;;;3.87;;
4921;SDS011;16625;53.624;10.106;2023-11-21T13:01:18;3.47;;;2.83;;
4921;SDS011;16625;53.624;10.106;2023-11-21T13:03:47;4.70;;;3.50;;
4921;SDS011;16625;53.624;10.106;2023-11-21T13:06:16;6.00;;;3.50;;
4921;SDS011;16625;53.624;10.106;2023-11-21T13:08:44;4.40;;;3.03;;
4921;SDS011;16625;53.624;10.106;2023-11-21T13:11:12;4.37;;;3.27;;
4921;SDS011;16625;53.624;10.106;2023-11-21T13:13:40;4.07;;;3.30;;
4921;SDS011;16625;53.624;10.106;2023-11-21T13:16:08;4.30;;;2.97;;
4921;SDS011;16625;53.624;10.106;2023-11-21T13:18:37;4.10;;;3.47;;
4921;SDS011;16625;53.624;10.106;2023-11-21T13:21:08;5.20;;;3.83;;
4921;SDS011;16625;53.624;10.106;2023-11-21T13:23:38;4.23;;;3.40;;
4921;SDS011;16625;53.624;10.106;2023-11-21T13:26:06;4.13;;;3.60;;
4921;SDS011;16625;53.624;10.106;2023-11-21T13:28:34;5.43;;;3.70;;
4921;SDS011;16625;53.624;10.106;2023-11-21T13:31:02;4.13;;;3.30;;
4921;SDS011;16625;53.624;10.106;2023-11-21T13:33:47;5.80;;;3.83;;
4921;SDS011;16625;53.624;10.106;2023-11-21T13:36:20;5.27;;;3.57;;
4921;SDS011;16625;53.624;10.106;2023-11-21T13:38:48;7.80;;;3.40;;
4921;SDS011;16625;53.624;10.106;2023-11-21T13:41:15;4.93;;;4.03;;
4921;SDS011;16625;53.624;10.106;2023-11-21T13:43:43;4.57;;;3.20;;
4921;SDS011;16625;53.624;10.106;2023-11-21T13:46:15;6.03;;;3.37;;
4921;SDS011;16625;53.624;10.106;2023-11-21T13:48:48;4.20;;;2.87;;
4921;SDS011;16625;53.624;10.106;2023-11-21T13:51:20;9.70;;;3.70;;
4921;SDS011;16625;53.624;10.106;2023-11-21T13:53:55;4.93;;;3.40;;
4921;SDS011;16625;53.624;10.106;2023-11-21T13:56:22;4.57;;;3.20;;
4921;SDS011;16625;53.624;10.106;2023-11-21T13:58:51;4.57;;;3.87;;
4921;SDS011;16625;53.624;10.106;2023-11-21T14:01:19;4.73;;;2.80;;
4921;SDS011;16625;53.624;10.106;2023-11-21T14:04:11;4.77;;;3.80;;
4921;SDS011;16625;53.624;10.106;2023-11-21T14:06:45;5.30;;;3.50;;
4921;SDS011;16625;53.624;10.106;2023-11-21T14:09:14;4.40;;;3.30;;
4921;SDS011;16625;53.624;10.106;2023-11-21T14:11:48;4.00;;;2.77;;
4921;SDS011;16625;53.624;10.106;2023-11-21T14:14:16;3.70;;;3.07;;
4921;SDS011;16625;53.624;10.106;2023-11-21T14:16:43;6.10;;;3.53;;
4921;SDS011;16625;53.624;10.106;2023-11-21T14:19:12;5.00;;;3.17;;
4921;SDS011;16625;53.624;10.106;2023-11-21T14:21:42;4.10;;;3.20;;
4921;SDS011;16625;53.624;10.106;2023-11-21T14:24:10;5.20;;;3.20;;
4921;SDS011;16625;53.624;10.106;2023-11-21T14:26:39;3.73;;;2.33;;
4921;SDS011;16625;53.624;10.106;2023-11-21T14:29:07;2.50;;;2.30;;
4921;SDS011;16625;53.624;10.106;2023-11-21T14:31:37;3.93;;;3.17;;
4921;SDS011;16625;53.624;10.106;2023-11-21T14:34:04;2.87;;;2.57;;
4921;SDS011;16625;53.624;10.106;2023-11-21T14:36:33;4.53;;;3.30;;
4921;SDS011;16625;53.624;10.106;2023-11-21T14:39:01;2.93;;;2.53;;
4921;SDS011;16625;53.624;10.106;2023-11-21T14:41:32;7.70;;;2.73;;
4921;SDS011;16625;53.624;10.106;2023-11-21T14:44:00;6.67;;;4.63;;
4921;SDS011;16625;53.624;10.106;2023-11-21T14:46:29;9.40;;;3.07;;
4921;SDS011;16625;53.624;10.106;2023-11-21T14:48:56;3.83;;;2.70;;
4921;SDS011;16625;53.624;10.106;2023-11-21T14:51:34;7.00;;;3.63;;